Time;durP1;ratioP1;P1;durP2;ratioP2;P2;SDS_P1;SDS_P2;PMS_P1;PMS_P2;Temp;Humidity;BMP_temperature;BMP_pressure;BME280_temperature;BME280_humidity;BME280_pressure;Samples;Min_cycle;Max_cycle;Signal;HPM_P1;HPM_P2
2021/12/02 00:00:56;;;;;;;4.55;1.05;;;;;;;;;;5077362;28;20452;-68
2021/12/02 00:03:22;;;;;;;4.10;1.05;;;;;;;;;;5071908;28;20027;-67
2021/12/02 00:05:48;;;;;;;5.80;1.00;;;;;;;;;;5071825;28;20395;-66
2021/12/02 00:08:14;;;;;;;6.63;0.80;;;;;;;;;;5071981;28;20476;-67
2021/12/02 00:10:41;;;;;;;3.47;0.77;;;;;;;;;;5073229;28;20040;-68
2021/12/02 00:13:08;;;;;;;9.95;1.23;;;;;;;;;;5083156;28;20020;-65
2021/12/02 00:23:34;;;;;;;2.35;0.75;;;;;;;;;;5106833;28;20027;-69
2021/12/02 00:26:02;;;;;;;3.17;0.70;;;;;;;;;;5093218;28;20027;-68
2021/12/02 02:41:05;;;;;;;3.83;0.73;;;;;;;;;;5095019;28;20122;-67
2021/12/02 02:43:33;;;;;;;3.28;1.10;;;;;;;;;;5104328;28;20150;-69
2021/12/02 02:45:59;;;;;;;3.88;0.70;;;;;;;;;;5096215;28;20027;-66
2021/12/02 02:48:26;;;;;;;2.00;0.70;;;;;;;;;;5096837;28;20135;-68
2021/12/02 02:50:52;;;;;;;2.20;0.60;;;;;;;;;;5115110;28;20028;-68
2021/12/02 02:53:21;;;;;;;3.53;0.75;;;;;;;;;;5114873;28;20047;-70
2021/12/02 02:55:59;;;;;;;3.63;0.80;;;;;;;;;;5115034;28;20023;-66
2021/12/02 03:03:53;;;;;;;2.47;0.70;;;;;;;;;;5094759;28;20474;-68
2021/12/02 03:08:59;;;;;;;2.80;0.80;;;;;;;;;;5094501;28;19904;-68
2021/12/02 03:11:27;;;;;;;4.05;0.95;;;;;;;;;;5093947;28;20036;-67
2021/12/02 03:13:55;;;;;;;5.47;0.80;;;;;;;;;;5094202;28;20028;-67
2021/12/02 03:16:43;;;;;;;1.20;0.63;;;;;;;;;;5099773;28;20027;-67
2021/12/02 03:19:09;;;;;;;0.88;0.40;;;;;;;;;;5101724;28;20450;-68
2021/12/02 03:21:35;;;;;;;3.10;0.60;;;;;;;;;;5106280;28;20027;-67
2021/12/02 03:24:01;;;;;;;2.03;0.63;;;;;;;;;;5102041;28;20077;-67
2021/12/02 03:26:28;;;;;;;4.75;0.90;;;;;;;;;;5093541;28;20016;-66
2021/12/02 03:28:54;;;;;;;3.92;0.90;;;;;;;;;;5093482;28;20049;-66
2021/12/02 03:31:25;;;;;;;7.53;0.60;;;;;;;;;;5093428;28;20480;-66
2021/12/02 03:33:51;;;;;;;18.15;1.00;;;;;;;;;;5113677;28;20019;-65
2021/12/02 03:36:17;;;;;;;5.68;0.70;;;;;;;;;;5095752;28;20759;-65
2021/12/02 03:38:44;;;;;;;5.65;0.80;;;;;;;;;;5093222;28;20028;-65
2021/12/02 03:41:10;;;;;;;2.92;0.80;;;;;;;;;;5093184;28;20061;-66
2021/12/02 03:43:37;;;;;;;4.25;0.82;;;;;;;;;;5078656;28;20114;-66
2021/12/02 03:46:03;;;;;;;1.77;0.60;;;;;;;;;;5083048;28;20479;-66
2021/12/02 03:48:29;;;;;;;1.73;0.60;;;;;;;;;;5084890;28;20444;-66
2021/12/02 03:50:55;;;;;;;2.88;0.60;;;;;;;;;;5105164;28;20031;-66
2021/12/02 03:53:21;;;;;;;1.90;0.73;;;;;;;;;;5113074;28;20379;-66
2021/12/02 03:55:47;;;;;;;8.00;1.00;;;;;;;;;;5107990;28;20111;-66
2021/12/02 03:58:13;;;;;;;2.13;0.50;;;;;;;;;;5104060;28;20028;-66
2021/12/02 04:00:39;;;;;;;1.88;0.60;;;;;;;;;;5112518;28;20631;-66
2021/12/02 04:03:05;;;;;;;2.92;0.60;;;;;;;;;;5111926;28;20028;-65
2021/12/02 04:05:31;;;;;;;6.35;0.50;;;;;;;;;;5113391;28;20038;-66
2021/12/02 04:07:57;;;;;;;3.75;0.57;;;;;;;;;;5102593;28;20099;-65
2021/12/02 04:10:24;;;;;;;3.03;0.50;;;;;;;;;;5093108;28;20065;-69
2021/12/02 04:15:29;;;;;;;1.65;0.57;;;;;;;;;;5103694;28;20072;-68
2021/12/02 04:17:55;;;;;;;1.70;0.50;;;;;;;;;;5105761;28;20034;-69
2021/12/02 04:20:22;;;;;;;1.85;0.40;;;;;;;;;;5113419;28;20019;-69
2021/12/02 04:22:49;;;;;;;4.40;0.80;;;;;;;;;;5113839;28;20041;-69
2021/12/02 04:25:16;;;;;;;2.97;0.43;;;;;;;;;;5088183;28;20090;-70
2021/12/02 04:27:42;;;;;;;2.70;0.60;;;;;;;;;;5093465;28;20031;-71
2021/12/02 04:30:09;;;;;;;2.50;0.80;;;;;;;;;;5090418;28;20462;-71
2021/12/02 04:32:35;;;;;;;1.58;0.68;;;;;;;;;;5113821;28;20024;-70
2021/12/02 04:35:01;;;;;;;1.67;0.52;;;;;;;;;;5108284;28;20390;-69
2021/12/02 04:37:29;;;;;;;2.47;0.75;;;;;;;;;;5077913;28;20034;-70
2021/12/02 04:39:55;;;;;;;7.50;0.65;;;;;;;;;;5075051;28;20055;-71
2021/12/02 04:42:21;;;;;;;2.55;0.82;;;;;;;;;;5093244;28;20495;-71
2021/12/02 04:44:47;;;;;;;2.03;0.55;;;;;;;;;;5108374;28;20043;-71
2021/12/02 04:47:13;;;;;;;1.73;0.60;;;;;;;;;;5096064;28;20103;-71
2021/12/02 04:49:41;;;;;;;1.88;0.60;;;;;;;;;;5097023;28;20069;-71
2021/12/02 04:52:07;;;;;;;3.25;0.65;;;;;;;;;;5097405;28;20019;-71
2021/12/02 04:54:33;;;;;;;3.35;0.55;;;;;;;;;;5079081;28;20119;-71
2021/12/02 04:56:59;;;;;;;2.28;0.75;;;;;;;;;;5096996;28;20139;-71
2021/12/02 04:59:25;;;;;;;3.50;0.80;;;;;;;;;;5097173;28;20024;-69
2021/12/02 05:01:51;;;;;;;1.73;0.50;;;;;;;;;;5092773;28;20031;-68
2021/12/02 05:04:17;;;;;;;3.75;0.60;;;;;;;;;;5097110;28;20039;-72
2021/12/02 05:06:43;;;;;;;1.35;0.60;;;;;;;;;;5105361;28;20015;-71
2021/12/02 05:09:09;;;;;;;4.15;0.52;;;;;;;;;;5117227;28;20324;-72
2021/12/02 05:11:35;;;;;;;2.30;0.90;;;;;;;;;;5117198;28;20367;-72
2021/12/02 05:14:01;;;;;;;1.83;0.68;;;;;;;;;;5117318;28;20093;-72
2021/12/02 05:16:27;;;;;;;3.70;0.70;;;;;;;;;;5098283;28;20092;-72
2021/12/02 05:18:53;;;;;;;1.65;0.50;;;;;;;;;;5096734;28;20475;-67
2021/12/02 05:21:19;;;;;;;2.03;0.60;;;;;;;;;;5096919;28;20355;-70
2021/12/02 05:23:45;;;;;;;1.55;0.50;;;;;;;;;;5096682;28;20078;-72
2021/12/02 05:26:11;;;;;;;2.67;0.60;;;;;;;;;;5096999;28;20024;-72
2021/12/02 05:28:37;;;;;;;3.13;0.80;;;;;;;;;;5097106;28;20052;-72
2021/12/02 05:31:03;;;;;;;4.13;0.63;;;;;;;;;;5096485;28;20070;-73
2021/12/02 05:33:29;;;;;;;5.70;0.60;;;;;;;;;;5096543;28;20056;-71
2021/12/02 05:35:55;;;;;;;2.92;0.63;;;;;;;;;;5096314;28;20031;-70
2021/12/02 05:38:21;;;;;;;3.40;0.57;;;;;;;;;;5096256;28;20082;-72
2021/12/02 05:40:47;;;;;;;1.63;0.50;;;;;;;;;;5096017;28;20078;-72
2021/12/02 05:43:13;;;;;;;2.08;0.52;;;;;;;;;;5096319;28;20054;-70
2021/12/02 05:45:39;;;;;;;1.92;0.77;;;;;;;;;;5114694;28;20035;-67
2021/12/02 05:48:05;;;;;;;2.35;0.60;;;;;;;;;;5098668;28;20027;-73
2021/12/02 05:50:31;;;;;;;1.42;0.50;;;;;;;;;;5092315;28;20024;-72
2021/12/02 05:52:57;;;;;;;2.85;0.80;;;;;;;;;;5112117;28;20490;-72
2021/12/02 05:55:23;;;;;;;1.90;0.70;;;;;;;;;;5116319;28;20024;-70
2021/12/02 05:57:49;;;;;;;2.72;1.02;;;;;;;;;;5115800;28;20035;-71
2021/12/02 06:00:15;;;;;;;1.55;0.68;;;;;;;;;;5116426;28;20529;-72
2021/12/02 06:02:41;;;;;;;2.15;0.60;;;;;;;;;;5116333;28;20027;-73
2021/12/02 06:05:08;;;;;;;3.03;0.70;;;;;;;;;;5116145;28;20060;-71
2021/12/02 06:07:35;;;;;;;1.55;0.60;;;;;;;;;;5115382;28;20059;-73
2021/12/02 06:10:01;;;;;;;1.70;0.68;;;;;;;;;;5116257;28;20031;-71
2021/12/02 06:12:27;;;;;;;1.20;0.65;;;;;;;;;;5116440;28;20451;-72
2021/12/02 06:14:53;;;;;;;3.05;0.52;;;;;;;;;;5116104;28;20020;-67
2021/12/02 06:17:19;;;;;;;2.60;0.73;;;;;;;;;;5115690;28;20039;-69
2021/12/02 06:19:45;;;;;;;1.83;0.60;;;;;;;;;;5097942;28;20750;-69
2021/12/02 06:22:13;;;;;;;3.20;0.73;;;;;;;;;;5097760;28;20019;-72
2021/12/02 06:24:43;;;;;;;4.53;0.70;;;;;;;;;;5116298;28;20016;-72
2021/12/02 06:27:12;;;;;;;2.05;0.77;;;;;;;;;;5116051;28;20023;-73
2021/12/02 06:29:38;;;;;;;2.10;0.70;;;;;;;;;;5115894;28;20024;-72
2021/12/02 06:32:06;;;;;;;1.60;0.80;;;;;;;;;;5115558;28;20376;-71
2021/12/02 06:34:32;;;;;;;1.85;0.70;;;;;;;;;;5097500;28;20519;-71
2021/12/02 06:36:58;;;;;;;1.58;0.57;;;;;;;;;;5116102;28;20522;-72
2021/12/02 06:39:24;;;;;;;2.10;0.70;;;;;;;;;;5115720;28;20391;-69
2021/12/02 06:41:50;;;;;;;1.85;0.80;;;;;;;;;;5115459;28;20065;-69
2021/12/02 06:44:16;;;;;;;2.90;0.70;;;;;;;;;;5115943;28;20023;-72
2021/12/02 06:46:42;;;;;;;1.83;0.70;;;;;;;;;;5115526;28;20459;-72
2021/12/02 06:49:08;;;;;;;2.33;0.63;;;;;;;;;;5115599;28;20359;-67
2021/12/02 06:51:35;;;;;;;2.65;0.90;;;;;;;;;;5108649;28;20126;-72
2021/12/02 06:54:03;;;;;;;2.28;0.57;;;;;;;;;;5115564;28;20053;-71
2021/12/02 06:56:29;;;;;;;2.00;0.63;;;;;;;;;;5115745;28;20031;-71
2021/12/02 06:58:55;;;;;;;3.22;0.85;;;;;;;;;;5115507;28;20024;-72
2021/12/02 07:01:21;;;;;;;2.22;0.65;;;;;;;;;;5115381;28;20095;-72
2021/12/02 07:03:47;;;;;;;1.95;0.60;;;;;;;;;;5115221;28;20020;-71
2021/12/02 07:06:13;;;;;;;1.67;0.60;;;;;;;;;;5115188;28;20089;-72
2021/12/02 07:08:39;;;;;;;1.33;0.70;;;;;;;;;;5114533;28;20098;-72
2021/12/02 07:11:08;;;;;;;0.95;0.60;;;;;;;;;;5113821;28;20031;-70
2021/12/02 07:13:35;;;;;;;3.47;0.70;;;;;;;;;;5115355;27;20023;-72
2021/12/02 07:16:02;;;;;;;3.22;0.70;;;;;;;;;;5114763;28;20447;-72
2021/12/02 07:18:28;;;;;;;2.78;0.75;;;;;;;;;;5115325;28;20016;-72
2021/12/02 07:20:54;;;;;;;1.13;0.70;;;;;;;;;;5115032;28;20119;-71
2021/12/02 07:23:20;;;;;;;1.98;0.70;;;;;;;;;;5114906;28;20103;-72
2021/12/02 07:25:47;;;;;;;2.05;0.77;;;;;;;;;;5112259;28;20562;-73
2021/12/02 07:28:14;;;;;;;2.88;0.60;;;;;;;;;;5115073;28;20045;-70
2021/12/02 07:30:40;;;;;;;1.33;0.50;;;;;;;;;;5114788;28;20032;-72
2021/12/02 07:33:08;;;;;;;3.00;0.70;;;;;;;;;;5113511;28;20184;-71
2021/12/02 07:35:34;;;;;;;2.85;0.82;;;;;;;;;;5114736;28;20098;-70
2021/12/02 07:38:01;;;;;;;1.65;0.63;;;;;;;;;;5114523;28;20116;-69
2021/12/02 07:40:28;;;;;;;1.50;0.60;;;;;;;;;;5114858;28;20028;-72
2021/12/02 07:42:54;;;;;;;1.95;0.55;;;;;;;;;;5114294;28;20138;-69
2021/12/02 07:45:26;;;;;;;2.20;0.60;;;;;;;;;;5125078;27;20524;-72
2021/12/02 07:47:52;;;;;;;1.83;0.60;;;;;;;;;;5134919;27;20023;-67
2021/12/02 07:50:19;;;;;;;2.28;0.70;;;;;;;;;;5134562;27;20039;-72
2021/12/02 07:52:49;;;;;;;2.35;0.77;;;;;;;;;;5134617;27;20023;-69
2021/12/02 07:55:16;;;;;;;3.03;0.73;;;;;;;;;;5134589;27;20098;-72
2021/12/02 07:57:43;;;;;;;2.90;0.80;;;;;;;;;;5127036;27;20024;-69
2021/12/02 08:00:10;;;;;;;1.80;0.70;;;;;;;;;;5113950;28;20024;-72
2021/12/02 08:02:36;;;;;;;2.45;0.77;;;;;;;;;;5113736;28;20055;-72
2021/12/02 08:05:03;;;;;;;3.72;0.85;;;;;;;;;;5112626;28;20046;-71
2021/12/02 08:07:29;;;;;;;3.15;0.60;;;;;;;;;;5113864;28;20076;-69
2021/12/02 08:09:55;;;;;;;2.00;0.75;;;;;;;;;;5113798;28;20110;-72
2021/12/02 08:12:21;;;;;;;1.77;0.70;;;;;;;;;;5113376;28;20115;-71
2021/12/02 08:14:49;;;;;;;1.42;0.60;;;;;;;;;;5108569;28;20024;-70
2021/12/02 08:17:15;;;;;;;3.25;0.60;;;;;;;;;;5107400;28;20429;-68
2021/12/02 08:19:42;;;;;;;1.20;0.55;;;;;;;;;;5103785;28;20447;-71
2021/12/02 08:22:08;;;;;;;0.98;0.45;;;;;;;;;;5093306;28;20021;-75
2021/12/02 08:24:34;;;;;;;8.45;0.60;;;;;;;;;;5109437;28;20047;-76
2021/12/02 08:27:00;;;;;;;2.72;0.73;;;;;;;;;;5114856;28;20035;-74
2021/12/02 08:29:26;;;;;;;3.83;0.90;;;;;;;;;;5111731;28;20387;-77
2021/12/02 08:31:53;;;;;;;3.72;0.68;;;;;;;;;;5096991;28;20498;-75
2021/12/02 08:34:19;;;;;;;6.95;0.68;;;;;;;;;;5114825;28;20027;-67
2021/12/02 08:36:55;;;;;;;4.22;0.80;;;;;;;;;;5096013;28;20351;-75
2021/12/02 08:39:24;;;;;;;4.45;0.70;;;;;;;;;;5114317;28;20034;-75
2021/12/02 08:41:53;;;;;;;6.50;0.80;;;;;;;;;;5114706;28;20035;-69
2021/12/02 08:44:19;;;;;;;1.42;0.68;;;;;;;;;;5102898;28;20074;-73
2021/12/02 08:46:47;;;;;;;3.35;1.30;;;;;;;;;;5095290;28;20036;-66
2021/12/02 08:49:13;;;;;;;4.63;0.80;;;;;;;;;;5114115;28;20019;-68
2021/12/02 08:51:40;;;;;;;22.55;1.27;;;;;;;;;;5093850;28;20036;-72
2021/12/02 08:54:06;;;;;;;22.92;1.20;;;;;;;;;;5074861;28;20059;-68
2021/12/02 08:56:32;;;;;;;27.67;1.63;;;;;;;;;;5093294;28;20024;-73
2021/12/02 08:58:59;;;;;;;15.18;1.20;;;;;;;;;;5104613;28;20046;-77
2021/12/02 09:01:26;;;;;;;15.77;1.42;;;;;;;;;;5093497;28;20747;-67
2021/12/02 09:03:52;;;;;;;16.77;1.30;;;;;;;;;;5096330;28;20024;-67
2021/12/02 09:06:21;;;;;;;8.10;1.67;;;;;;;;;;5112400;28;20393;-67
2021/12/02 09:08:47;;;;;;;5.05;1.02;;;;;;;;;;5108615;28;20038;-67
2021/12/02 09:11:13;;;;;;;11.43;1.30;;;;;;;;;;5112301;28;20040;-68
2021/12/02 09:13:39;;;;;;;6.90;1.50;;;;;;;;;;5113106;28;20016;-69
2021/12/02 09:16:06;;;;;;;12.38;1.20;;;;;;;;;;5112974;28;20059;-68
2021/12/02 09:18:32;;;;;;;13.10;1.60;;;;;;;;;;5113051;28;20051;-68
2021/12/02 09:20:58;;;;;;;13.60;1.38;;;;;;;;;;5112762;28;20028;-65
2021/12/02 09:23:24;;;;;;;6.63;1.48;;;;;;;;;;5112711;28;20038;-68
2021/12/02 09:25:50;;;;;;;3.10;1.25;;;;;;;;;;5105869;28;20024;-67
2021/12/02 09:28:17;;;;;;;2.22;0.98;;;;;;;;;;5112679;28;20034;-67
2021/12/02 09:30:43;;;;;;;5.15;1.30;;;;;;;;;;5110718;28;20031;-70
2021/12/02 09:33:09;;;;;;;4.85;1.20;;;;;;;;;;5107472;28;20059;-68
2021/12/02 09:35:35;;;;;;;16.15;1.27;;;;;;;;;;5095771;28;20032;-68
2021/12/02 09:38:02;;;;;;;5.60;1.35;;;;;;;;;;5094744;28;20107;-68
2021/12/02 09:40:28;;;;;;;6.80;1.55;;;;;;;;;;5095794;28;20023;-68
2021/12/02 09:42:54;;;;;;;4.63;1.52;;;;;;;;;;5095454;28;20052;-68
2021/12/02 09:45:20;;;;;;;11.73;1.65;;;;;;;;;;5104965;28;20039;-68
2021/12/02 09:47:47;;;;;;;4.47;1.50;;;;;;;;;;5116329;28;20027;-65
2021/12/02 09:50:19;;;;;;;9.10;2.13;;;;;;;;;;5116082;28;20028;-66
2021/12/02 09:52:46;;;;;;;7.10;1.92;;;;;;;;;;5108045;28;20028;-70
2021/12/02 09:57:47;;;;;;;5.05;1.50;;;;;;;;;;5116353;28;20023;-70
2021/12/02 10:00:22;;;;;;;7.82;1.88;;;;;;;;;;5116501;28;20016;-70
2021/12/02 10:02:59;;;;;;;8.93;1.60;;;;;;;;;;5097628;28;20019;-70
2021/12/02 10:05:42;;;;;;;5.97;1.50;;;;;;;;;;5115892;28;20036;-69
2021/12/02 10:08:12;;;;;;;;;;;;;;;;;;5116252;28;20055;-71
2021/12/02 10:10:51;;;;;;;6.20;1.52;;;;;;;;;;5095822;28;19955;-68
2021/12/02 10:16:06;;;;;;;6.55;1.52;;;;;;;;;;5095537;28;20094;-68
2021/12/02 10:18:48;;;;;;;8.45;1.45;;;;;;;;;;5112864;28;20024;-68
2021/12/02 10:21:18;;;;;;;3.28;1.30;;;;;;;;;;5097421;28;20063;-69
2021/12/02 10:23:47;;;;;;;2.92;1.38;;;;;;;;;;5115666;28;20088;-68
2021/12/02 10:26:13;;;;;;;3.83;1.50;;;;;;;;;;5115523;28;20023;-68
2021/12/02 10:28:43;;;;;;;3.63;1.60;;;;;;;;;;5115590;28;20471;-66
2021/12/02 10:31:10;;;;;;;4.93;1.27;;;;;;;;;;5115637;28;20031;-67
2021/12/02 10:33:39;;;;;;;6.95;1.50;;;;;;;;;;5113558;28;20046;-67
2021/12/02 10:36:07;;;;;;;2.78;1.20;;;;;;;;;;5115779;28;20506;-67
2021/12/02 10:38:34;;;;;;;5.90;1.40;;;;;;;;;;5097315;28;20028;-67
2021/12/02 10:41:05;;;;;;;6.07;1.40;;;;;;;;;;5115233;28;20044;-67
2021/12/02 10:43:31;;;;;;;3.97;1.50;;;;;;;;;;5095737;28;20479;-68
2021/12/02 10:46:13;;;;;;;8.70;1.60;;;;;;;;;;5113751;27;20015;-66
2021/12/02 10:48:47;;;;;;;1.42;0.75;;;;;;;;;;5095343;28;20042;-67
2021/12/02 10:51:33;;;;;;;5.15;1.10;;;;;;;;;;5111528;28;20035;-67
2021/12/02 10:54:00;;;;;;;2.58;1.10;;;;;;;;;;5115335;28;20028;-67
2021/12/02 10:56:31;;;;;;;2.58;1.20;;;;;;;;;;5115391;28;20020;-67
2021/12/02 10:58:57;;;;;;;5.65;1.35;;;;;;;;;;5113193;28;20027;-67
2021/12/02 11:01:39;;;;;;;3.60;1.00;;;;;;;;;;5094717;28;20577;-67
2021/12/02 11:04:05;;;;;;;3.25;1.00;;;;;;;;;;5094750;28;20031;-68
2021/12/02 11:06:45;;;;;;;4.97;1.15;;;;;;;;;;5076824;28;20020;-68
2021/12/02 11:09:31;;;;;;;1.73;0.95;;;;;;;;;;5094522;28;20028;-68
2021/12/02 11:12:12;;;;;;;4.45;1.08;;;;;;;;;;5107319;28;20371;-67
2021/12/02 11:14:43;;;;;;;6.18;0.90;;;;;;;;;;5114837;28;20073;-67
2021/12/02 11:17:14;;;;;;;2.35;1.10;;;;;;;;;;5115030;28;20024;-67
2021/12/02 11:19:43;;;;;;;3.10;1.10;;;;;;;;;;5114641;28;20027;-67
2021/12/02 11:22:10;;;;;;;3.72;0.90;;;;;;;;;;5114757;28;20092;-67
2021/12/02 11:24:38;;;;;;;5.13;0.85;;;;;;;;;;5114476;28;20027;-67
2021/12/02 11:27:07;;;;;;;9.82;1.20;;;;;;;;;;5114344;28;20027;-66
2021/12/02 11:29:53;;;;;;;3.05;1.00;;;;;;;;;;5114390;28;20367;-67
2021/12/02 11:32:23;;;;;;;1.90;0.70;;;;;;;;;;5113544;28;20050;-66
2021/12/02 11:34:58;;;;;;;2.08;0.80;;;;;;;;;;5113840;28;20031;-66
2021/12/02 11:37:25;;;;;;;2.58;0.70;;;;;;;;;;5113921;28;20551;-66
2021/12/02 11:39:51;;;;;;;4.13;0.60;;;;;;;;;;5113543;28;20110;-66
2021/12/02 11:42:17;;;;;;;1.98;0.85;;;;;;;;;;5113829;28;20122;-66
2021/12/02 11:44:44;;;;;;;4.03;0.70;;;;;;;;;;5113799;28;20032;-66
2021/12/02 11:47:10;;;;;;;2.38;0.80;;;;;;;;;;5113811;28;20022;-65
2021/12/02 11:49:36;;;;;;;2.15;0.80;;;;;;;;;;5113807;28;20031;-65
2021/12/02 11:52:02;;;;;;;3.15;0.73;;;;;;;;;;5113586;28;20043;-66
2021/12/02 11:54:28;;;;;;;3.08;0.80;;;;;;;;;;5113623;28;20451;-66
2021/12/02 11:56:54;;;;;;;5.40;0.70;;;;;;;;;;5112925;28;20077;-70
2021/12/02 11:59:21;;;;;;;1.48;0.65;;;;;;;;;;5108449;28;20020;-67
2021/12/02 12:01:47;;;;;;;1.45;0.70;;;;;;;;;;5093429;28;20105;-67
2021/12/02 12:04:14;;;;;;;3.20;0.88;;;;;;;;;;5093253;28;20020;-67
2021/12/02 12:06:41;;;;;;;3.72;0.57;;;;;;;;;;5093068;28;20145;-67
2021/12/02 12:09:17;;;;;;;1.10;0.60;;;;;;;;;;5093060;28;20020;-67
2021/12/02 12:11:50;;;;;;;4.15;0.70;;;;;;;;;;5074979;28;20071;-68
2021/12/02 12:14:19;;;;;;;3.15;0.82;;;;;;;;;;5102126;28;20080;-67
2021/12/02 12:16:48;;;;;;;3.33;0.80;;;;;;;;;;5104058;28;20032;-68
2021/12/02 12:19:29;;;;;;;3.17;0.80;;;;;;;;;;5098683;28;20098;-68
2021/12/02 12:22:02;;;;;;;6.35;0.70;;;;;;;;;;5103911;28;20038;-68
2021/12/02 12:24:41;;;;;;;3.20;0.80;;;;;;;;;;5099004;28;20483;-68
2021/12/02 12:27:18;;;;;;;3.47;0.80;;;;;;;;;;5106321;28;20016;-69
2021/12/02 12:29:47;;;;;;;4.07;0.60;;;;;;;;;;5109915;28;20024;-68
2021/12/02 12:32:37;;;;;;;2.63;0.80;;;;;;;;;;5105205;28;20032;-68
2021/12/02 12:35:07;;;;;;;3.38;0.80;;;;;;;;;;5100163;28;20384;-68
2021/12/02 12:40:04;;;;;;;3.08;0.90;;;;;;;;;;5093004;28;20070;-69
2021/12/02 12:42:30;;;;;;;2.72;0.60;;;;;;;;;;5074587;28;20160;-69
2021/12/02 12:44:58;;;;;;;4.13;0.70;;;;;;;;;;5074729;28;20032;-68
2021/12/02 12:47:43;;;;;;;1.83;0.65;;;;;;;;;;5094216;28;20036;-69
2021/12/02 12:50:29;;;;;;;4.80;0.70;;;;;;;;;;5078667;28;20620;-69
2021/12/02 12:53:16;;;;;;;1.05;0.60;;;;;;;;;;5081293;28;20028;-70
2021/12/02 12:56:00;;;;;;;3.50;0.70;;;;;;;;;;5092032;28;20039;-69
2021/12/02 12:58:27;;;;;;;2.22;0.70;;;;;;;;;;5095299;28;20055;-71
2021/12/02 13:00:56;;;;;;;2.30;0.73;;;;;;;;;;5079649;28;20371;-68
2021/12/02 13:06:02;;;;;;;2.88;0.80;;;;;;;;;;5097716;28;20073;-69
2021/12/02 13:08:31;;;;;;;1.88;0.70;;;;;;;;;;5106328;28;20015;-69
2021/12/02 13:10:57;;;;;;;5.63;0.88;;;;;;;;;;5108459;28;20024;-70
2021/12/02 13:13:27;;;;;;;1.35;0.70;;;;;;;;;;5099806;28;20028;-69
2021/12/02 13:15:54;;;;;;;0.93;0.63;;;;;;;;;;5109936;28;20031;-68
2021/12/02 13:18:33;;;;;;;1.05;0.50;;;;;;;;;;5109893;28;20068;-68
2021/12/02 13:21:19;;;;;;;3.28;0.80;;;;;;;;;;5104325;28;20133;-68
2021/12/02 13:23:54;;;;;;;1.35;0.60;;;;;;;;;;5083218;28;20276;-68
2021/12/02 13:26:21;;;;;;;2.05;0.60;;;;;;;;;;5091184;28;20094;-68
2021/12/02 13:28:48;;;;;;;6.18;0.70;;;;;;;;;;5082995;28;20024;-69
2021/12/02 13:31:16;;;;;;;1.10;0.70;;;;;;;;;;5104041;28;20051;-69
2021/12/02 13:33:49;;;;;;;1.92;0.60;;;;;;;;;;5101090;28;20023;-68
2021/12/02 13:36:17;;;;;;;2.88;0.80;;;;;;;;;;5103827;28;20141;-67
2021/12/02 13:38:44;;;;;;;1.60;0.50;;;;;;;;;;5098436;28;20020;-68
2021/12/02 13:41:11;;;;;;;1.45;0.75;;;;;;;;;;5086716;28;20044;-68
2021/12/02 13:43:51;;;;;;;1.35;0.60;;;;;;;;;;5102662;28;20024;-70
2021/12/02 13:46:17;;;;;;;2.35;0.70;;;;;;;;;;5100793;28;20408;-68
2021/12/02 13:48:55;;;;;;;2.50;0.50;;;;;;;;;;5095671;28;20048;-69
2021/12/02 13:54:23;;;;;;;1.20;0.57;;;;;;;;;;5098652;28;20031;-71
2021/12/02 13:56:49;;;;;;;1.45;0.68;;;;;;;;;;5080201;28;20033;-71
2021/12/02 13:59:18;;;;;;;2.75;0.70;;;;;;;;;;5105530;28;20024;-71
2021/12/02 14:01:50;;;;;;;2.70;0.80;;;;;;;;;;5102881;28;20394;-68
2021/12/02 14:04:16;;;;;;;4.97;0.97;;;;;;;;;;5106787;28;20080;-71
2021/12/02 14:06:42;;;;;;;1.73;0.60;;;;;;;;;;5105745;28;20288;-71
2021/12/02 14:09:16;;;;;;;6.03;0.57;;;;;;;;;;5110179;28;20032;-69
2021/12/02 14:11:42;;;;;;;4.65;0.73;;;;;;;;;;5105903;28;20027;-70
2021/12/02 14:14:15;;;;;;;2.58;0.70;;;;;;;;;;5101443;28;20016;-71
2021/12/02 14:16:41;;;;;;;2.05;0.63;;;;;;;;;;5106040;27;20032;-68
2021/12/02 14:19:11;;;;;;;4.22;0.80;;;;;;;;;;5104701;28;20027;-68
2021/12/02 14:21:37;;;;;;;2.65;0.80;;;;;;;;;;5104167;28;20087;-69
2021/12/02 14:24:03;;;;;;;3.47;0.50;;;;;;;;;;5107141;28;20020;-70
2021/12/02 14:26:30;;;;;;;2.05;0.70;;;;;;;;;;5106177;28;20031;-68
2021/12/02 14:28:59;;;;;;;4.50;0.60;;;;;;;;;;5108162;28;20020;-71
2021/12/02 14:31:33;;;;;;;4.53;0.77;;;;;;;;;;5104609;28;20093;-71
2021/12/02 14:34:01;;;;;;;1.77;0.82;;;;;;;;;;5096930;28;20099;-71
2021/12/02 14:36:28;;;;;;;3.17;0.80;;;;;;;;;;5107384;28;20024;-71
2021/12/02 14:39:05;;;;;;;5.32;0.70;;;;;;;;;;5104542;28;20020;-71
2021/12/02 14:41:33;;;;;;;2.05;0.70;;;;;;;;;;5106262;28;20081;-71
2021/12/02 14:44:29;;;;;;;3.42;0.70;;;;;;;;;;5105856;28;20012;-71
2021/12/02 14:46:57;;;;;;;1.63;0.70;;;;;;;;;;5092278;28;20122;-73
2021/12/02 14:49:35;;;;;;;5.43;0.93;;;;;;;;;;5104406;28;20043;-73
2021/12/02 14:52:05;;;;;;;1.83;0.68;;;;;;;;;;5108945;28;20442;-72
2021/12/02 14:54:34;;;;;;;1.95;0.80;;;;;;;;;;5102961;28;20031;-72
2021/12/02 14:57:01;;;;;;;4.53;0.98;;;;;;;;;;5095853;28;20012;-71
2021/12/02 14:59:29;;;;;;;3.25;0.60;;;;;;;;;;5100493;28;20016;-72
2021/12/02 15:02:01;;;;;;;2.55;0.85;;;;;;;;;;5099726;28;20028;-71
2021/12/02 15:04:28;;;;;;;3.42;0.93;;;;;;;;;;5102343;28;20028;-71
2021/12/02 15:07:05;;;;;;;2.40;0.73;;;;;;;;;;5087051;28;20425;-72
2021/12/02 15:09:36;;;;;;;1.70;0.80;;;;;;;;;;5107701;28;20035;-71
2021/12/02 15:12:03;;;;;;;1.65;0.82;;;;;;;;;;5104283;28;20061;-71
2021/12/02 15:14:33;;;;;;;1.92;0.70;;;;;;;;;;5102795;28;20031;-73
2021/12/02 15:16:59;;;;;;;2.63;0.65;;;;;;;;;;5107291;28;20056;-73
2021/12/02 15:19:52;;;;;;;1.95;0.85;;;;;;;;;;5090718;28;20011;-74
2021/12/02 15:22:27;;;;;;;3.40;0.65;;;;;;;;;;5096050;28;20036;-71
2021/12/02 15:25:03;;;;;;;3.17;0.90;;;;;;;;;;5105406;28;20061;-70
2021/12/02 15:27:29;;;;;;;2.38;0.70;;;;;;;;;;5099931;28;20012;-71
2021/12/02 15:29:56;;;;;;;4.57;0.88;;;;;;;;;;5086469;28;20413;-71
2021/12/02 15:32:21;;;;;;;3.83;0.70;;;;;;;;;;5105715;28;20108;-71
2021/12/02 15:34:48;;;;;;;1.20;0.70;;;;;;;;;;5101183;28;20055;-71
2021/12/02 15:37:14;;;;;;;2.35;0.80;;;;;;;;;;5107123;28;20494;-74
2021/12/02 15:39:40;;;;;;;1.02;0.60;;;;;;;;;;5104981;28;20042;-72
2021/12/02 15:42:06;;;;;;;3.22;1.10;;;;;;;;;;5100522;28;20129;-74
2021/12/02 15:44:35;;;;;;;1.20;0.70;;;;;;;;;;5094457;28;20063;-71
2021/12/02 15:47:03;;;;;;;2.38;0.80;;;;;;;;;;5086442;28;20051;-70
2021/12/02 15:49:30;;;;;;;1.40;0.90;;;;;;;;;;5103767;28;20028;-70
2021/12/02 15:51:59;;;;;;;2.72;0.70;;;;;;;;;;5084632;28;20509;-71
2021/12/02 15:54:27;;;;;;;2.97;0.80;;;;;;;;;;5109059;28;20058;-70
2021/12/02 15:56:53;;;;;;;1.35;0.70;;;;;;;;;;5106420;28;20124;-70
2021/12/02 15:59:22;;;;;;;3.60;0.85;;;;;;;;;;5099210;28;20463;-69
2021/12/02 16:07:04;;;;;;;2.90;1.20;;;;;;;;;;5099536;28;20020;-69
2021/12/02 16:12:29;;;;;;;5.75;1.67;;;;;;;;;;5100088;28;20047;-68
2021/12/02 16:14:59;;;;;;;4.50;1.70;;;;;;;;;;5103099;28;20051;-69
2021/12/02 16:17:26;;;;;;;7.00;1.70;;;;;;;;;;5098913;28;20066;-68
2021/12/02 16:19:54;;;;;;;8.85;1.85;;;;;;;;;;5098650;28;20028;-70
2021/12/02 16:22:22;;;;;;;4.15;1.80;;;;;;;;;;5102967;28;20039;-70
2021/12/02 16:24:52;;;;;;;4.18;1.77;;;;;;;;;;5105784;28;20020;-70
2021/12/02 16:27:18;;;;;;;3.67;1.65;;;;;;;;;;5099608;28;20019;-69
2021/12/02 16:29:44;;;;;;;6.18;2.22;;;;;;;;;;5101318;28;20098;-70
2021/12/02 16:32:10;;;;;;;5.60;2.03;;;;;;;;;;5100828;28;20032;-71
2021/12/02 16:34:37;;;;;;;3.92;1.92;;;;;;;;;;5086843;28;20383;-69
2021/12/02 16:37:03;;;;;;;4.57;2.25;;;;;;;;;;5102005;28;20038;-69
2021/12/02 16:39:36;;;;;;;4.80;1.88;;;;;;;;;;5101936;28;20035;-70
2021/12/02 16:42:03;;;;;;;4.78;2.25;;;;;;;;;;5098906;28;20094;-69
2021/12/02 16:44:29;;;;;;;5.03;2.38;;;;;;;;;;5101172;28;20437;-69
2021/12/02 16:46:55;;;;;;;7.13;2.63;;;;;;;;;;5102393;28;20054;-69
2021/12/02 16:49:25;;;;;;;4.07;2.42;;;;;;;;;;5102278;28;20013;-70
2021/12/02 16:51:51;;;;;;;8.63;3.20;;;;;;;;;;5085654;28;20040;-71
2021/12/02 16:54:17;;;;;;;6.10;2.75;;;;;;;;;;5103705;28;20084;-70
2021/12/02 16:56:43;;;;;;;5.93;3.13;;;;;;;;;;5100189;28;20390;-68
2021/12/02 16:59:10;;;;;;;10.57;2.83;;;;;;;;;;5103198;28;20062;-68
2021/12/02 17:01:36;;;;;;;6.80;3.13;;;;;;;;;;5101054;28;20081;-67
2021/12/02 17:04:02;;;;;;;7.50;3.40;;;;;;;;;;5103472;28;20025;-70
2021/12/02 17:06:28;;;;;;;5.78;2.83;;;;;;;;;;5103166;28;20092;-69
2021/12/02 17:08:54;;;;;;;8.00;3.90;;;;;;;;;;5084028;28;20440;-68
2021/12/02 17:11:20;;;;;;;6.95;2.83;;;;;;;;;;5101860;28;20036;-68
2021/12/02 17:13:47;;;;;;;7.55;2.88;;;;;;;;;;5103706;28;20529;-69
2021/12/02 17:16:13;;;;;;;6.15;3.17;;;;;;;;;;5100530;28;20081;-70
2021/12/02 17:18:39;;;;;;;7.13;3.08;;;;;;;;;;5100577;28;20055;-72
2021/12/02 17:21:06;;;;;;;5.25;3.22;;;;;;;;;;5103919;28;20067;-71
2021/12/02 17:23:32;;;;;;;5.18;2.85;;;;;;;;;;5097143;28;20019;-72
2021/12/02 17:25:58;;;;;;;7.18;3.20;;;;;;;;;;5102706;28;20028;-72
2021/12/02 17:28:24;;;;;;;6.10;2.90;;;;;;;;;;5099952;28;20019;-71
2021/12/02 17:30:50;;;;;;;7.80;2.95;;;;;;;;;;5100477;28;20028;-71
2021/12/02 17:33:17;;;;;;;8.25;3.00;;;;;;;;;;5102471;28;20035;-71
2021/12/02 17:35:43;;;;;;;8.05;2.60;;;;;;;;;;5104469;28;20020;-73
2021/12/02 17:38:09;;;;;;;5.65;2.90;;;;;;;;;;5094765;28;20140;-72
2021/12/02 17:40:46;;;;;;;5.85;2.60;;;;;;;;;;5084889;28;20027;-72
2021/12/02 17:43:16;;;;;;;7.75;3.05;;;;;;;;;;5085322;28;20036;-70